sensor_id;sensor_type;location;lat;lon;timestamp;P1;durP1;ratioP1;P2;durP2;ratioP2
22234;SDS011;11286;45.596;5.284;2023-02-22T00:00:21;28.50;;;21.48;;
22234;SDS011;11286;45.596;5.284;2023-02-22T00:02:53;28.65;;;21.77;;
22234;SDS011;11286;45.596;5.284;2023-02-22T00:05:24;30.17;;;22.63;;
22234;SDS011;11286;45.596;5.284;2023-02-22T00:07:51;27.75;;;22.40;;
22234;SDS011;11286;45.596;5.284;2023-02-22T00:10:17;26.42;;;22.42;;
22234;SDS011;11286;45.596;5.284;2023-02-22T00:12:48;28.00;;;22.35;;
22234;SDS011;11286;45.596;5.284;2023-02-22T00:15:16;27.70;;;22.50;;
22234;SDS011;11286;45.596;5.284;2023-02-22T00:17:43;33.08;;;23.45;;
22234;SDS011;11286;45.596;5.284;2023-02-22T00:20:09;27.58;;;23.67;;
22234;SDS011;11286;45.596;5.284;2023-02-22T00:22:39;28.17;;;23.23;;
22234;SDS011;11286;45.596;5.284;2023-02-22T00:25:10;29.27;;;23.17;;
22234;SDS011;11286;45.596;5.284;2023-02-22T00:27:36;28.27;;;23.00;;
22234;SDS011;11286;45.596;5.284;2023-02-22T00:30:03;30.00;;;23.35;;
22234;SDS011;11286;45.596;5.284;2023-02-22T00:32:29;29.63;;;23.95;;
22234;SDS011;11286;45.596;5.284;2023-02-22T00:34:55;29.55;;;23.25;;
22234;SDS011;11286;45.596;5.284;2023-02-22T00:37:21;30.90;;;23.75;;
22234;SDS011;11286;45.596;5.284;2023-02-22T00:39:47;28.00;;;22.55;;
22234;SDS011;11286;45.596;5.284;2023-02-22T00:42:14;30.48;;;24.38;;
22234;SDS011;11286;45.596;5.284;2023-02-22T00:44:41;29.30;;;23.65;;
22234;SDS011;11286;45.596;5.284;2023-02-22T00:47:07;32.40;;;23.17;;
22234;SDS011;11286;45.596;5.284;2023-02-22T00:49:33;28.98;;;23.30;;
22234;SDS011;11286;45.596;5.284;2023-02-22T00:51:59;29.02;;;22.92;;
22234;SDS011;11286;45.596;5.284;2023-02-22T00:54:25;34.67;;;24.60;;
22234;SDS011;11286;45.596;5.284;2023-02-22T00:56:51;29.92;;;23.73;;
22234;SDS011;11286;45.596;5.284;2023-02-22T00:59:16;29.85;;;23.45;;
22234;SDS011;11286;45.596;5.284;2023-02-22T01:01:42;33.13;;;23.90;;
22234;SDS011;11286;45.596;5.284;2023-02-22T01:04:08;30.40;;;24.98;;
22234;SDS011;11286;45.596;5.284;2023-02-22T01:06:34;33.65;;;25.25;;
22234;SDS011;11286;45.596;5.284;2023-02-22T01:09:01;34.67;;;24.65;;
22234;SDS011;11286;45.596;5.284;2023-02-22T01:11:28;32.08;;;24.88;;
22234;SDS011;11286;45.596;5.284;2023-02-22T01:13:54;28.42;;;23.75;;
22234;SDS011;11286;45.596;5.284;2023-02-22T01:16:21;31.30;;;23.85;;
22234;SDS011;11286;45.596;5.284;2023-02-22T01:18:47;30.42;;;24.77;;
22234;SDS011;11286;45.596;5.284;2023-02-22T01:21:13;30.80;;;23.63;;
22234;SDS011;11286;45.596;5.284;2023-02-22T01:23:39;30.10;;;24.70;;
22234;SDS011;11286;45.596;5.284;2023-02-22T01:26:04;34.15;;;25.25;;
22234;SDS011;11286;45.596;5.284;2023-02-22T01:28:30;31.92;;;23.70;;
22234;SDS011;11286;45.596;5.284;2023-02-22T01:30:56;28.90;;;24.13;;
22234;SDS011;11286;45.596;5.284;2023-02-22T01:33:22;31.98;;;25.90;;
22234;SDS011;11286;45.596;5.284;2023-02-22T01:35:48;30.55;;;23.58;;
22234;SDS011;11286;45.596;5.284;2023-02-22T01:38:15;33.40;;;25.50;;
22234;SDS011;11286;45.596;5.284;2023-02-22T01:40:42;33.33;;;24.95;;
22234;SDS011;11286;45.596;5.284;2023-02-22T01:43:22;30.70;;;24.02;;
22234;SDS011;11286;45.596;5.284;2023-02-22T01:45:54;31.77;;;23.98;;
22234;SDS011;11286;45.596;5.284;2023-02-22T01:51:10;29.85;;;24.10;;
22234;SDS011;11286;45.596;5.284;2023-02-22T01:54:12;33.38;;;23.83;;
22234;SDS011;11286;45.596;5.284;2023-02-22T01:59:31;31.15;;;24.48;;
22234;SDS011;11286;45.596;5.284;2023-02-22T02:02:00;32.67;;;24.40;;
22234;SDS011;11286;45.596;5.284;2023-02-22T02:04:28;32.58;;;24.75;;
22234;SDS011;11286;45.596;5.284;2023-02-22T02:06:57;34.00;;;25.30;;
22234;SDS011;11286;45.596;5.284;2023-02-22T02:12:04;29.83;;;24.52;;
22234;SDS011;11286;45.596;5.284;2023-02-22T02:14:34;31.48;;;24.95;;
22234;SDS011;11286;45.596;5.284;2023-02-22T02:17:04;30.70;;;24.05;;
22234;SDS011;11286;45.596;5.284;2023-02-22T02:22:19;30.10;;;24.20;;
22234;SDS011;11286;45.596;5.284;2023-02-22T02:25:09;30.50;;;24.30;;
22234;SDS011;11286;45.596;5.284;2023-02-22T02:42:19;30.98;;;24.02;;
22234;SDS011;11286;45.596;5.284;2023-02-22T02:44:50;31.20;;;23.80;;
22234;SDS011;11286;45.596;5.284;2023-02-22T02:47:24;29.17;;;23.73;;
22234;SDS011;11286;45.596;5.284;2023-02-22T02:49:56;31.50;;;23.58;;
22234;SDS011;11286;45.596;5.284;2023-02-22T02:52:28;28.38;;;23.35;;
22234;SDS011;11286;45.596;5.284;2023-02-22T02:54:57;34.90;;;23.90;;
22234;SDS011;11286;45.596;5.284;2023-02-22T02:57:23;30.50;;;24.30;;
22234;SDS011;11286;45.596;5.284;2023-02-22T02:59:49;32.55;;;23.90;;
22234;SDS011;11286;45.596;5.284;2023-02-22T03:08:00;28.70;;;22.27;;
22234;SDS011;11286;45.596;5.284;2023-02-22T03:10:40;27.80;;;22.60;;
22234;SDS011;11286;45.596;5.284;2023-02-22T03:19:21;33.58;;;23.95;;
22234;SDS011;11286;45.596;5.284;2023-02-22T03:25:09;29.00;;;22.55;;
22234;SDS011;11286;45.596;5.284;2023-02-22T03:27:50;25.88;;;20.75;;
22234;SDS011;11286;45.596;5.284;2023-02-22T03:30:23;28.75;;;22.52;;
22234;SDS011;11286;45.596;5.284;2023-02-22T03:32:53;30.88;;;22.63;;
22234;SDS011;11286;45.596;5.284;2023-02-22T03:35:24;28.98;;;21.40;;
22234;SDS011;11286;45.596;5.284;2023-02-22T03:37:56;30.17;;;22.67;;
22234;SDS011;11286;45.596;5.284;2023-02-22T03:40:27;28.58;;;22.58;;
22234;SDS011;11286;45.596;5.284;2023-02-22T03:42:59;29.75;;;22.42;;
22234;SDS011;11286;45.596;5.284;2023-02-22T03:45:29;27.88;;;20.63;;
22234;SDS011;11286;45.596;5.284;2023-02-22T03:48:01;25.25;;;20.70;;
22234;SDS011;11286;45.596;5.284;2023-02-22T03:50:34;27.73;;;21.55;;
22234;SDS011;11286;45.596;5.284;2023-02-22T03:53:01;26.48;;;21.48;;
22234;SDS011;11286;45.596;5.284;2023-02-22T03:55:28;31.42;;;21.23;;
22234;SDS011;11286;45.596;5.284;2023-02-22T03:57:56;28.52;;;21.42;;
22234;SDS011;11286;45.596;5.284;2023-02-22T04:00:24;27.52;;;22.00;;
22234;SDS011;11286;45.596;5.284;2023-02-22T04:02:51;27.90;;;21.42;;
22234;SDS011;11286;45.596;5.284;2023-02-22T04:05:17;29.75;;;21.23;;
22234;SDS011;11286;45.596;5.284;2023-02-22T04:07:43;27.10;;;21.30;;
22234;SDS011;11286;45.596;5.284;2023-02-22T04:10:10;26.85;;;22.60;;
22234;SDS011;11286;45.596;5.284;2023-02-22T04:12:36;26.70;;;21.58;;
22234;SDS011;11286;45.596;5.284;2023-02-22T04:15:03;26.55;;;20.30;;
22234;SDS011;11286;45.596;5.284;2023-02-22T04:17:31;27.73;;;21.27;;
22234;SDS011;11286;45.596;5.284;2023-02-22T04:19:56;28.52;;;20.23;;
22234;SDS011;11286;45.596;5.284;2023-02-22T04:22:22;30.00;;;22.45;;
22234;SDS011;11286;45.596;5.284;2023-02-22T04:24:48;26.98;;;20.73;;
22234;SDS011;11286;45.596;5.284;2023-02-22T04:27:14;27.83;;;21.25;;
22234;SDS011;11286;45.596;5.284;2023-02-22T04:29:40;31.40;;;22.23;;
22234;SDS011;11286;45.596;5.284;2023-02-22T04:32:06;25.83;;;20.88;;
22234;SDS011;11286;45.596;5.284;2023-02-22T04:34:32;25.63;;;20.33;;
22234;SDS011;11286;45.596;5.284;2023-02-22T04:36:57;25.88;;;20.48;;
22234;SDS011;11286;45.596;5.284;2023-02-22T04:39:23;30.48;;;21.40;;
22234;SDS011;11286;45.596;5.284;2023-02-22T04:41:49;29.70;;;21.48;;
22234;SDS011;11286;45.596;5.284;2023-02-22T04:44:14;28.00;;;21.08;;
22234;SDS011;11286;45.596;5.284;2023-02-22T04:46:40;28.77;;;21.17;;
22234;SDS011;11286;45.596;5.284;2023-02-22T04:49:06;28.88;;;20.90;;
22234;SDS011;11286;45.596;5.284;2023-02-22T04:51:31;26.70;;;21.00;;
22234;SDS011;11286;45.596;5.284;2023-02-22T04:53:57;27.30;;;21.13;;
22234;SDS011;11286;45.596;5.284;2023-02-22T04:56:23;30.42;;;21.52;;
22234;SDS011;11286;45.596;5.284;2023-02-22T04:58:48;30.02;;;21.90;;
22234;SDS011;11286;45.596;5.284;2023-02-22T05:01:14;30.10;;;21.67;;
22234;SDS011;11286;45.596;5.284;2023-02-22T05:03:40;29.15;;;21.52;;
22234;SDS011;11286;45.596;5.284;2023-02-22T05:06:06;28.00;;;21.30;;
22234;SDS011;11286;45.596;5.284;2023-02-22T05:08:32;25.60;;;19.65;;
22234;SDS011;11286;45.596;5.284;2023-02-22T05:10:58;29.02;;;19.90;;
22234;SDS011;11286;45.596;5.284;2023-02-22T05:13:24;27.90;;;20.85;;
22234;SDS011;11286;45.596;5.284;2023-02-22T05:15:50;30.88;;;20.17;;
22234;SDS011;11286;45.596;5.284;2023-02-22T05:18:15;24.88;;;19.08;;
22234;SDS011;11286;45.596;5.284;2023-02-22T05:20:41;28.33;;;20.95;;
22234;SDS011;11286;45.596;5.284;2023-02-22T05:23:07;24.50;;;19.63;;
22234;SDS011;11286;45.596;5.284;2023-02-22T05:25:32;24.73;;;20.38;;
22234;SDS011;11286;45.596;5.284;2023-02-22T05:28:02;29.45;;;22.33;;
22234;SDS011;11286;45.596;5.284;2023-02-22T05:30:30;26.02;;;19.73;;
22234;SDS011;11286;45.596;5.284;2023-02-22T05:32:58;25.35;;;19.85;;
22234;SDS011;11286;45.596;5.284;2023-02-22T05:35:24;25.38;;;20.35;;
22234;SDS011;11286;45.596;5.284;2023-02-22T05:37:51;30.60;;;21.70;;
22234;SDS011;11286;45.596;5.284;2023-02-22T05:40:21;27.73;;;20.67;;
22234;SDS011;11286;45.596;5.284;2023-02-22T05:42:49;25.10;;;20.35;;
22234;SDS011;11286;45.596;5.284;2023-02-22T05:45:17;27.40;;;22.50;;
22234;SDS011;11286;45.596;5.284;2023-02-22T05:47:45;27.20;;;20.90;;
22234;SDS011;11286;45.596;5.284;2023-02-22T05:50:10;31.73;;;22.23;;
22234;SDS011;11286;45.596;5.284;2023-02-22T05:52:36;27.95;;;21.08;;
22234;SDS011;11286;45.596;5.284;2023-02-22T05:55:03;32.85;;;22.13;;
22234;SDS011;11286;45.596;5.284;2023-02-22T05:57:29;27.27;;;20.90;;
22234;SDS011;11286;45.596;5.284;2023-02-22T05:59:55;30.65;;;22.15;;
22234;SDS011;11286;45.596;5.284;2023-02-22T06:02:21;28.98;;;21.55;;
22234;SDS011;11286;45.596;5.284;2023-02-22T06:04:46;27.63;;;22.27;;
22234;SDS011;11286;45.596;5.284;2023-02-22T06:07:12;34.20;;;25.02;;
22234;SDS011;11286;45.596;5.284;2023-02-22T06:09:38;34.53;;;25.48;;
22234;SDS011;11286;45.596;5.284;2023-02-22T06:12:05;31.17;;;22.25;;
22234;SDS011;11286;45.596;5.284;2023-02-22T06:14:31;36.92;;;26.13;;
22234;SDS011;11286;45.596;5.284;2023-02-22T06:16:57;36.22;;;25.05;;
22234;SDS011;11286;45.596;5.284;2023-02-22T06:19:24;34.10;;;23.23;;
22234;SDS011;11286;45.596;5.284;2023-02-22T06:21:51;38.22;;;25.40;;
22234;SDS011;11286;45.596;5.284;2023-02-22T06:24:19;31.67;;;24.48;;
22234;SDS011;11286;45.596;5.284;2023-02-22T06:26:45;32.22;;;23.08;;
22234;SDS011;11286;45.596;5.284;2023-02-22T06:29:25;29.98;;;22.35;;
22234;SDS011;11286;45.596;5.284;2023-02-22T06:31:52;29.92;;;21.80;;
22234;SDS011;11286;45.596;5.284;2023-02-22T06:34:19;31.00;;;21.67;;
22234;SDS011;11286;45.596;5.284;2023-02-22T06:36:46;29.60;;;20.15;;
22234;SDS011;11286;45.596;5.284;2023-02-22T06:39:14;29.30;;;19.48;;
22234;SDS011;11286;45.596;5.284;2023-02-22T06:41:41;28.30;;;19.30;;
22234;SDS011;11286;45.596;5.284;2023-02-22T06:44:08;32.55;;;22.75;;
22234;SDS011;11286;45.596;5.284;2023-02-22T06:46:34;28.25;;;20.67;;
22234;SDS011;11286;45.596;5.284;2023-02-22T06:49:00;24.75;;;19.90;;
22234;SDS011;11286;45.596;5.284;2023-02-22T06:51:26;26.23;;;19.17;;
22234;SDS011;11286;45.596;5.284;2023-02-22T06:53:53;26.52;;;18.60;;
22234;SDS011;11286;45.596;5.284;2023-02-22T06:56:19;22.70;;;16.85;;
22234;SDS011;11286;45.596;5.284;2023-02-22T06:58:45;24.13;;;17.92;;
22234;SDS011;11286;45.596;5.284;2023-02-22T07:01:11;27.98;;;21.38;;
22234;SDS011;11286;45.596;5.284;2023-02-22T07:03:37;25.92;;;20.52;;
22234;SDS011;11286;45.596;5.284;2023-02-22T07:06:03;22.83;;;17.60;;
22234;SDS011;11286;45.596;5.284;2023-02-22T07:08:30;19.90;;;16.10;;
22234;SDS011;11286;45.596;5.284;2023-02-22T07:10:56;19.17;;;15.77;;
22234;SDS011;11286;45.596;5.284;2023-02-22T07:13:21;18.63;;;15.38;;
22234;SDS011;11286;45.596;5.284;2023-02-22T07:15:47;19.85;;;14.82;;
22234;SDS011;11286;45.596;5.284;2023-02-22T07:18:12;21.23;;;15.77;;
22234;SDS011;11286;45.596;5.284;2023-02-22T07:20:40;19.27;;;14.77;;
22234;SDS011;11286;45.596;5.284;2023-02-22T07:23:06;19.92;;;15.52;;
22234;SDS011;11286;45.596;5.284;2023-02-22T07:25:31;16.52;;;14.25;;
22234;SDS011;11286;45.596;5.284;2023-02-22T07:27:57;19.73;;;15.27;;
22234;SDS011;11286;45.596;5.284;2023-02-22T07:30:27;29.92;;;22.88;;
22234;SDS011;11286;45.596;5.284;2023-02-22T07:32:56;40.67;;;28.38;;
22234;SDS011;11286;45.596;5.284;2023-02-22T07:35:24;42.58;;;27.67;;
22234;SDS011;11286;45.596;5.284;2023-02-22T07:37:52;40.25;;;27.65;;
22234;SDS011;11286;45.596;5.284;2023-02-22T07:40:19;42.88;;;27.40;;
22234;SDS011;11286;45.596;5.284;2023-02-22T07:43:01;45.92;;;28.35;;
22234;SDS011;11286;45.596;5.284;2023-02-22T07:45:46;42.90;;;28.42;;
22234;SDS011;11286;45.596;5.284;2023-02-22T07:48:14;40.72;;;27.17;;
22234;SDS011;11286;45.596;5.284;2023-02-22T07:50:41;44.60;;;27.65;;
22234;SDS011;11286;45.596;5.284;2023-02-22T07:53:09;42.72;;;27.23;;
22234;SDS011;11286;45.596;5.284;2023-02-22T07:55:37;42.80;;;25.58;;
22234;SDS011;11286;45.596;5.284;2023-02-22T07:58:03;35.78;;;24.05;;
22234;SDS011;11286;45.596;5.284;2023-02-22T08:00:35;31.98;;;23.40;;
22234;SDS011;11286;45.596;5.284;2023-02-22T08:03:03;31.63;;;22.42;;
22234;SDS011;11286;45.596;5.284;2023-02-22T08:05:34;26.83;;;21.70;;
22234;SDS011;11286;45.596;5.284;2023-02-22T08:08:02;27.48;;;21.13;;
22234;SDS011;11286;45.596;5.284;2023-02-22T08:10:28;29.02;;;20.98;;
22234;SDS011;11286;45.596;5.284;2023-02-22T08:12:54;31.60;;;21.27;;
22234;SDS011;11286;45.596;5.284;2023-02-22T08:15:28;29.73;;;20.80;;
22234;SDS011;11286;45.596;5.284;2023-02-22T08:18:02;28.23;;;21.65;;
22234;SDS011;11286;45.596;5.284;2023-02-22T08:20:29;29.83;;;22.25;;
22234;SDS011;11286;45.596;5.284;2023-02-22T08:22:56;24.50;;;19.27;;
22234;SDS011;11286;45.596;5.284;2023-02-22T08:25:23;26.25;;;17.50;;
22234;SDS011;11286;45.596;5.284;2023-02-22T08:27:51;18.25;;;16.25;;
22234;SDS011;11286;45.596;5.284;2023-02-22T08:30:22;22.15;;;16.50;;
22234;SDS011;11286;45.596;5.284;2023-02-22T08:32:48;19.80;;;15.38;;
22234;SDS011;11286;45.596;5.284;2023-02-22T08:35:15;18.90;;;15.13;;
22234;SDS011;11286;45.596;5.284;2023-02-22T08:37:43;24.33;;;15.82;;
22234;SDS011;11286;45.596;5.284;2023-02-22T08:40:14;24.30;;;16.73;;
22234;SDS011;11286;45.596;5.284;2023-02-22T08:42:42;20.52;;;16.42;;
22234;SDS011;11286;45.596;5.284;2023-02-22T08:45:08;20.77;;;15.75;;
22234;SDS011;11286;45.596;5.284;2023-02-22T08:47:34;20.10;;;15.45;;
22234;SDS011;11286;45.596;5.284;2023-02-22T08:50:00;19.67;;;15.90;;
22234;SDS011;11286;45.596;5.284;2023-02-22T08:52:26;17.48;;;15.50;;
22234;SDS011;11286;45.596;5.284;2023-02-22T08:54:51;19.33;;;15.70;;
22234;SDS011;11286;45.596;5.284;2023-02-22T08:57:17;22.10;;;15.80;;
22234;SDS011;11286;45.596;5.284;2023-02-22T08:59:43;22.08;;;16.90;;
22234;SDS011;11286;45.596;5.284;2023-02-22T09:02:18;20.08;;;15.90;;
22234;SDS011;11286;45.596;5.284;2023-02-22T09:04:46;20.20;;;14.50;;
22234;SDS011;11286;45.596;5.284;2023-02-22T09:07:12;17.25;;;14.77;;
22234;SDS011;11286;45.596;5.284;2023-02-22T09:09:40;20.90;;;15.70;;
22234;SDS011;11286;45.596;5.284;2023-02-22T09:12:07;16.80;;;14.43;;
22234;SDS011;11286;45.596;5.284;2023-02-22T09:14:33;19.90;;;15.88;;
22234;SDS011;11286;45.596;5.284;2023-02-22T09:16:58;21.40;;;16.08;;
22234;SDS011;11286;45.596;5.284;2023-02-22T09:19:24;20.77;;;15.57;;
22234;SDS011;11286;45.596;5.284;2023-02-22T09:21:54;17.02;;;14.57;;
22234;SDS011;11286;45.596;5.284;2023-02-22T09:24:20;18.17;;;14.57;;
22234;SDS011;11286;45.596;5.284;2023-02-22T09:26:46;20.38;;;14.07;;
22234;SDS011;11286;45.596;5.284;2023-02-22T09:29:15;18.48;;;13.82;;
22234;SDS011;11286;45.596;5.284;2023-02-22T09:31:41;19.17;;;14.85;;
22234;SDS011;11286;45.596;5.284;2023-02-22T09:34:07;19.65;;;14.05;;
22234;SDS011;11286;45.596;5.284;2023-02-22T09:36:40;19.85;;;15.25;;
22234;SDS011;11286;45.596;5.284;2023-02-22T09:39:10;21.63;;;14.43;;
22234;SDS011;11286;45.596;5.284;2023-02-22T09:47:13;18.65;;;13.30;;
22234;SDS011;11286;45.596;5.284;2023-02-22T09:50:01;17.73;;;13.63;;
22234;SDS011;11286;45.596;5.284;2023-02-22T09:52:59;14.73;;;12.40;;
22234;SDS011;11286;45.596;5.284;2023-02-22T09:58:32;19.45;;;12.30;;
22234;SDS011;11286;45.596;5.284;2023-02-22T10:06:34;13.55;;;11.82;;
22234;SDS011;11286;45.596;5.284;2023-02-22T10:09:03;15.50;;;11.05;;
22234;SDS011;11286;45.596;5.284;2023-02-22T10:11:43;14.25;;;11.35;;
22234;SDS011;11286;45.596;5.284;2023-02-22T10:17:27;13.23;;;10.82;;
22234;SDS011;11286;45.596;5.284;2023-02-22T10:23:28;14.57;;;9.98;;
22234;SDS011;11286;45.596;5.284;2023-02-22T10:26:08;17.88;;;11.07;;
22234;SDS011;11286;45.596;5.284;2023-02-22T10:28:38;14.80;;;11.18;;
22234;SDS011;11286;45.596;5.284;2023-02-22T10:31:33;14.35;;;10.45;;
22234;SDS011;11286;45.596;5.284;2023-02-22T10:34:13;11.88;;;10.52;;
22234;SDS011;11286;45.596;5.284;2023-02-22T10:36:48;12.15;;;10.18;;
22234;SDS011;11286;45.596;5.284;2023-02-22T10:39:26;11.32;;;9.30;;
22234;SDS011;11286;45.596;5.284;2023-02-22T10:41:54;14.43;;;10.23;;
22234;SDS011;11286;45.596;5.284;2023-02-22T10:44:21;12.10;;;9.55;;
22234;SDS011;11286;45.596;5.284;2023-02-22T10:46:47;11.38;;;9.23;;
22234;SDS011;11286;45.596;5.284;2023-02-22T10:49:17;13.05;;;9.45;;
22234;SDS011;11286;45.596;5.284;2023-02-22T10:51:49;16.17;;;9.38;;
22234;SDS011;11286;45.596;5.284;2023-02-22T10:54:24;13.82;;;8.82;;
22234;SDS011;11286;45.596;5.284;2023-02-22T10:56:54;11.93;;;9.05;;
22234;SDS011;11286;45.596;5.284;2023-02-22T10:59:29;11.50;;;9.05;;
22234;SDS011;11286;45.596;5.284;2023-02-22T11:02:00;13.13;;;9.35;;
22234;SDS011;11286;45.596;5.284;2023-02-22T11:04:53;12.60;;;9.20;;
22234;SDS011;11286;45.596;5.284;2023-02-22T11:07:23;10.40;;;8.65;;
22234;SDS011;11286;45.596;5.284;2023-02-22T11:10:01;16.60;;;9.27;;
22234;SDS011;11286;45.596;5.284;2023-02-22T11:12:38;11.18;;;9.00;;
22234;SDS011;11286;45.596;5.284;2023-02-22T11:17:41;13.02;;;9.10;;
22234;SDS011;11286;45.596;5.284;2023-02-22T11:20:19;13.07;;;8.80;;
22234;SDS011;11286;45.596;5.284;2023-02-22T11:22:56;12.70;;;8.82;;
22234;SDS011;11286;45.596;5.284;2023-02-22T11:25:26;10.55;;;8.82;;
22234;SDS011;11286;45.596;5.284;2023-02-22T11:27:55;11.43;;;9.38;;
22234;SDS011;11286;45.596;5.284;2023-02-22T11:30:39;12.00;;;8.85;;
22234;SDS011;11286;45.596;5.284;2023-02-22T11:35:51;14.57;;;9.43;;
22234;SDS011;11286;45.596;5.284;2023-02-22T11:38:25;12.73;;;9.65;;
22234;SDS011;11286;45.596;5.284;2023-02-22T11:43:47;12.35;;;9.63;;
22234;SDS011;11286;45.596;5.284;2023-02-22T11:46:18;11.48;;;9.60;;
22234;SDS011;11286;45.596;5.284;2023-02-22T11:48:59;11.73;;;9.32;;
22234;SDS011;11286;45.596;5.284;2023-02-22T11:56:52;15.88;;;10.88;;
22234;SDS011;11286;45.596;5.284;2023-02-22T11:59:43;11.32;;;9.70;;
22234;SDS011;11286;45.596;5.284;2023-02-22T12:20:57;13.73;;;9.98;;
22234;SDS011;11286;45.596;5.284;2023-02-22T12:26:25;13.80;;;10.10;;
22234;SDS011;11286;45.596;5.284;2023-02-22T12:28:56;15.13;;;9.93;;
22234;SDS011;11286;45.596;5.284;2023-02-22T12:34:07;13.20;;;10.35;;
22234;SDS011;11286;45.596;5.284;2023-02-22T12:39:58;14.65;;;10.30;;
22234;SDS011;11286;45.596;5.284;2023-02-22T12:42:58;14.45;;;9.65;;
22234;SDS011;11286;45.596;5.284;2023-02-22T12:45:33;12.85;;;9.98;;
22234;SDS011;11286;45.596;5.284;2023-02-22T12:50:51;11.73;;;10.38;;
22234;SDS011;11286;45.596;5.284;2023-02-22T12:53:23;12.88;;;10.38;;
22234;SDS011;11286;45.596;5.284;2023-02-22T12:56:05;14.52;;;10.55;;
22234;SDS011;11286;45.596;5.284;2023-02-22T12:59:32;14.25;;;10.15;;
22234;SDS011;11286;45.596;5.284;2023-02-22T13:01:45;11.07;;;9.82;;
22234;SDS011;11286;45.596;5.284;2023-02-22T13:04:16;11.90;;;10.18;;
22234;SDS011;11286;45.596;5.284;2023-02-22T13:17:39;14.35;;;9.60;;
22234;SDS011;11286;45.596;5.284;2023-02-22T13:22:54;17.50;;;10.30;;
22234;SDS011;11286;45.596;5.284;2023-02-22T13:25:45;15.70;;;9.75;;
22234;SDS011;11286;45.596;5.284;2023-02-22T13:28:32;14.57;;;9.40;;
22234;SDS011;11286;45.596;5.284;2023-02-22T13:50:03;10.85;;;8.57;;
22234;SDS011;11286;45.596;5.284;2023-02-22T13:52:39;12.77;;;8.50;;
22234;SDS011;11286;45.596;5.284;2023-02-22T13:55:07;14.60;;;11.25;;
22234;SDS011;11286;45.596;5.284;2023-02-22T13:57:41;17.30;;;11.23;;
22234;SDS011;11286;45.596;5.284;2023-02-22T14:10:48;10.75;;;8.70;;
22234;SDS011;11286;45.596;5.284;2023-02-22T14:13:22;11.43;;;8.60;;
22234;SDS011;11286;45.596;5.284;2023-02-22T14:21:05;11.50;;;8.45;;
22234;SDS011;11286;45.596;5.284;2023-02-22T14:23:36;14.35;;;9.93;;
22234;SDS011;11286;45.596;5.284;2023-02-22T14:26:14;13.20;;;9.27;;
22234;SDS011;11286;45.596;5.284;2023-02-22T14:31:29;9.98;;;8.40;;
22234;SDS011;11286;45.596;5.284;2023-02-22T14:34:05;12.38;;;8.90;;
22234;SDS011;11286;45.596;5.284;2023-02-22T14:36:36;16.02;;;9.88;;
22234;SDS011;11286;45.596;5.284;2023-02-22T14:41:59;13.88;;;8.45;;
22234;SDS011;11286;45.596;5.284;2023-02-22T14:44:33;13.95;;;9.02;;
22234;SDS011;11286;45.596;5.284;2023-02-22T14:47:06;15.57;;;9.50;;
22234;SDS011;11286;45.596;5.284;2023-02-22T14:49:39;14.32;;;9.75;;
22234;SDS011;11286;45.596;5.284;2023-02-22T14:52:17;17.35;;;9.05;;
22234;SDS011;11286;45.596;5.284;2023-02-22T14:54:51;21.65;;;10.23;;
22234;SDS011;11286;45.596;5.284;2023-02-22T14:57:45;24.67;;;10.30;;
22234;SDS011;11286;45.596;5.284;2023-02-22T15:00:37;16.13;;;9.60;;
22234;SDS011;11286;45.596;5.284;2023-02-22T15:06:14;13.73;;;9.38;;
22234;SDS011;11286;45.596;5.284;2023-02-22T15:08:44;11.57;;;8.57;;
22234;SDS011;11286;45.596;5.284;2023-02-22T15:13:50;13.13;;;8.88;;
22234;SDS011;11286;45.596;5.284;2023-02-22T15:16:18;11.63;;;8.77;;
22234;SDS011;11286;45.596;5.284;2023-02-22T15:18:47;19.98;;;9.05;;
22234;SDS011;11286;45.596;5.284;2023-02-22T15:21:19;15.88;;;9.35;;
22234;SDS011;11286;45.596;5.284;2023-02-22T15:23:49;12.55;;;8.43;;
22234;SDS011;11286;45.596;5.284;2023-02-22T15:26:17;13.07;;;9.50;;
22234;SDS011;11286;45.596;5.284;2023-02-22T15:28:53;11.80;;;9.57;;
22234;SDS011;11286;45.596;5.284;2023-02-22T15:31:30;13.40;;;8.98;;
22234;SDS011;11286;45.596;5.284;2023-02-22T15:34:08;15.68;;;9.05;;
22234;SDS011;11286;45.596;5.284;2023-02-22T15:36:46;10.65;;;9.02;;
22234;SDS011;11286;45.596;5.284;2023-02-22T15:42:00;13.73;;;9.15;;
22234;SDS011;11286;45.596;5.284;2023-02-22T15:44:27;13.65;;;10.13;;
22234;SDS011;11286;45.596;5.284;2023-02-22T15:46:53;12.80;;;9.68;;
22234;SDS011;11286;45.596;5.284;2023-02-22T15:49:21;12.73;;;9.73;;
22234;SDS011;11286;45.596;5.284;2023-02-22T15:51:50;13.40;;;9.13;;
22234;SDS011;11286;45.596;5.284;2023-02-22T15:54:35;10.85;;;8.43;;
22234;SDS011;11286;45.596;5.284;2023-02-22T15:57:03;16.60;;;9.25;;
22234;SDS011;11286;45.596;5.284;2023-02-22T15:59:29;15.10;;;11.82;;
22234;SDS011;11286;45.596;5.284;2023-02-22T16:01:57;12.70;;;8.98;;
22234;SDS011;11286;45.596;5.284;2023-02-22T16:04:25;13.18;;;9.18;;
22234;SDS011;11286;45.596;5.284;2023-02-22T16:07:01;12.82;;;8.77;;
22234;SDS011;11286;45.596;5.284;2023-02-22T16:09:32;13.13;;;8.82;;
22234;SDS011;11286;45.596;5.284;2023-02-22T16:12:40;17.90;;;9.70;;
22234;SDS011;11286;45.596;5.284;2023-02-22T16:14:49;15.30;;;8.85;;
22234;SDS011;11286;45.596;5.284;2023-02-22T16:22:41;13.85;;;9.35;;
22234;SDS011;11286;45.596;5.284;2023-02-22T16:27:46;13.68;;;8.20;;
22234;SDS011;11286;45.596;5.284;2023-02-22T16:32:52;15.82;;;9.50;;
22234;SDS011;11286;45.596;5.284;2023-02-22T16:35:20;12.07;;;9.73;;
22234;SDS011;11286;45.596;5.284;2023-02-22T16:37:50;16.98;;;10.15;;
22234;SDS011;11286;45.596;5.284;2023-02-22T16:40:24;14.55;;;10.65;;
22234;SDS011;11286;45.596;5.284;2023-02-22T16:43:01;12.02;;;9.52;;
22234;SDS011;11286;45.596;5.284;2023-02-22T16:45:31;12.63;;;9.98;;
22234;SDS011;11286;45.596;5.284;2023-02-22T16:48:00;13.68;;;9.32;;
22234;SDS011;11286;45.596;5.284;2023-02-22T16:50:35;12.85;;;10.13;;
22234;SDS011;11286;45.596;5.284;2023-02-22T16:53:01;10.40;;;9.00;;
22234;SDS011;11286;45.596;5.284;2023-02-22T16:55:26;15.77;;;9.27;;
22234;SDS011;11286;45.596;5.284;2023-02-22T16:57:54;11.95;;;8.95;;
22234;SDS011;11286;45.596;5.284;2023-02-22T17:00:21;10.98;;;9.50;;
22234;SDS011;11286;45.596;5.284;2023-02-22T17:02:58;16.27;;;10.00;;
22234;SDS011;11286;45.596;5.284;2023-02-22T17:05:28;19.38;;;9.52;;
22234;SDS011;11286;45.596;5.284;2023-02-22T17:07:54;10.50;;;9.18;;
22234;SDS011;11286;45.596;5.284;2023-02-22T17:10:21;13.48;;;9.23;;
22234;SDS011;11286;45.596;5.284;2023-02-22T17:12:47;15.82;;;11.77;;
22234;SDS011;11286;45.596;5.284;2023-02-22T17:15:19;19.15;;;11.55;;
22234;SDS011;11286;45.596;5.284;2023-02-22T17:17:45;12.68;;;9.35;;
22234;SDS011;11286;45.596;5.284;2023-02-22T17:20:11;13.68;;;9.15;;
22234;SDS011;11286;45.596;5.284;2023-02-22T17:22:37;11.25;;;9.35;;
22234;SDS011;11286;45.596;5.284;2023-02-22T17:25:11;13.82;;;10.55;;
22234;SDS011;11286;45.596;5.284;2023-02-22T17:27:44;12.93;;;10.48;;
22234;SDS011;11286;45.596;5.284;2023-02-22T17:30:09;12.93;;;10.35;;
22234;SDS011;11286;45.596;5.284;2023-02-22T17:32:37;13.65;;;10.43;;
22234;SDS011;11286;45.596;5.284;2023-02-22T17:35:03;13.45;;;11.13;;
22234;SDS011;11286;45.596;5.284;2023-02-22T17:37:29;12.57;;;10.80;;
22234;SDS011;11286;45.596;5.284;2023-02-22T17:39:55;15.63;;;11.48;;